sensor_id;sensor_type;location;lat;lon;timestamp;pressure;altitude;pressure_sealevel;temperature;humidity
65553;BME280;52465;51.560;14.368;2022-10-16T00:01:06;100014.56;;;17.75;64.03
65553;BME280;52465;51.560;14.368;2022-10-16T00:03:32;100003.53;;;17.71;64.07
65553;BME280;52465;51.560;14.368;2022-10-16T00:05:59;100007.00;;;17.72;63.70
65553;BME280;52465;51.560;14.368;2022-10-16T00:08:25;100013.13;;;17.73;64.17
65553;BME280;52465;51.560;14.368;2022-10-16T00:10:51;100018.41;;;17.73;64.16
65553;BME280;52465;51.560;14.368;2022-10-16T00:13:16;100013.31;;;17.71;63.88
65553;BME280;52465;51.560;14.368;2022-10-16T00:15:43;100030.00;;;17.71;63.98
65553;BME280;52465;51.560;14.368;2022-10-16T00:18:09;100023.09;;;17.70;64.03
65553;BME280;52465;51.560;14.368;2022-10-16T00:20:36;100023.09;;;17.70;64.14
65553;BME280;52465;51.560;14.368;2022-10-16T00:23:03;100032.06;;;17.69;64.14
65553;BME280;52465;51.560;14.368;2022-10-16T00:25:28;100027.56;;;17.70;64.13
65553;BME280;52465;51.560;14.368;2022-10-16T00:27:54;100028.78;;;17.67;64.11
65553;BME280;52465;51.560;14.368;2022-10-16T00:30:19;100033.91;;;17.69;63.92
65553;BME280;52465;51.560;14.368;2022-10-16T00:32:45;100032.28;;;17.68;64.07
65553;BME280;52465;51.560;14.368;2022-10-16T00:35:10;100028.78;;;17.67;64.09
65553;BME280;52465;51.560;14.368;2022-10-16T00:37:35;100029.63;;;17.68;64.08
65553;BME280;52465;51.560;14.368;2022-10-16T00:40:00;100045.50;;;17.68;64.20
65553;BME280;52465;51.560;14.368;2022-10-16T00:42:26;100039.38;;;17.67;64.17
65553;BME280;52465;51.560;14.368;2022-10-16T00:44:57;100039.38;;;17.67;64.16
65553;BME280;52465;51.560;14.368;2022-10-16T00:47:26;100047.31;;;17.67;63.87
65553;BME280;52465;51.560;14.368;2022-10-16T00:49:58;100046.50;;;17.67;64.13
65553;BME280;52465;51.560;14.368;2022-10-16T00:52:24;100037.75;;;17.66;64.04
65553;BME280;52465;51.560;14.368;2022-10-16T00:54:51;100036.72;;;17.67;64.07
65553;BME280;52465;51.560;14.368;2022-10-16T00:57:17;100040.41;;;17.66;64.08
65553;BME280;52465;51.560;14.368;2022-10-16T00:59:43;100043.84;;;17.67;63.89
65553;BME280;52465;51.560;14.368;2022-10-16T01:02:11;100049.97;;;17.67;64.14
65553;BME280;52465;51.560;14.368;2022-10-16T01:04:39;100052.81;;;17.66;64.31
65553;BME280;52465;51.560;14.368;2022-10-16T01:07:30;100038.78;;;17.65;64.08
65553;BME280;52465;51.560;14.368;2022-10-16T01:12:42;100042.44;;;17.64;64.10
65553;BME280;52465;51.560;14.368;2022-10-16T01:15:18;100037.16;;;17.64;64.16
65553;BME280;52465;51.560;14.368;2022-10-16T01:18:08;100038.19;;;17.63;63.93
65553;BME280;52465;51.560;14.368;2022-10-16T01:20:54;100034.91;;;17.61;64.09
65553;BME280;52465;51.560;14.368;2022-10-16T01:28:55;100041.00;;;17.62;64.11
65553;BME280;52465;51.560;14.368;2022-10-16T01:31:25;100047.16;;;17.62;64.23
65553;BME280;52465;51.560;14.368;2022-10-16T01:34:00;100056.09;;;17.61;64.16
65553;BME280;52465;51.560;14.368;2022-10-16T01:36:33;100056.09;;;17.61;64.13
65553;BME280;52465;51.560;14.368;2022-10-16T01:39:01;100058.72;;;17.61;64.25
65553;BME280;52465;51.560;14.368;2022-10-16T01:41:36;100052.84;;;17.59;64.11
65553;BME280;52465;51.560;14.368;2022-10-16T01:44:10;100065.06;;;17.60;64.05
65553;BME280;52465;51.560;14.368;2022-10-16T01:46:38;100057.34;;;17.59;64.26
65553;BME280;52465;51.560;14.368;2022-10-16T01:49:05;100057.34;;;17.59;64.29
65553;BME280;52465;51.560;14.368;2022-10-16T01:51:32;100056.53;;;17.58;64.15
65553;BME280;52465;51.560;14.368;2022-10-16T01:53:59;100062.63;;;17.59;64.11
65553;BME280;52465;51.560;14.368;2022-10-16T01:56:26;100067.09;;;17.58;64.22
65553;BME280;52465;51.560;14.368;2022-10-16T01:58:59;100063.44;;;17.59;64.30
65553;BME280;52465;51.560;14.368;2022-10-16T02:01:28;100071.38;;;17.59;64.11
65553;BME280;52465;51.560;14.368;2022-10-16T02:03:58;100072.41;;;17.58;64.02
65553;BME280;52465;51.560;14.368;2022-10-16T02:06:24;100071.59;;;17.58;64.03
65553;BME280;52465;51.560;14.368;2022-10-16T02:08:50;100075.06;;;17.58;64.31
65553;BME280;52465;51.560;14.368;2022-10-16T02:11:16;100071.59;;;17.58;64.13
65553;BME280;52465;51.560;14.368;2022-10-16T02:13:42;100076.06;;;17.57;64.20
65553;BME280;52465;51.560;14.368;2022-10-16T02:16:11;100076.25;;;17.56;64.11
65553;BME280;52465;51.560;14.368;2022-10-16T02:18:37;100064.84;;;17.55;63.97
65553;BME280;52465;51.560;14.368;2022-10-16T02:21:10;100078.72;;;17.57;64.21
65553;BME280;52465;51.560;14.368;2022-10-16T02:23:59;100074.63;;;17.55;64.35
65553;BME280;52465;51.560;14.368;2022-10-16T02:26:33;100084.00;;;17.57;64.09
65553;BME280;52465;51.560;14.368;2022-10-16T02:29:07;100080.56;;;17.57;64.08
65553;BME280;52465;51.560;14.368;2022-10-16T02:31:38;100076.25;;;17.56;64.22
65553;BME280;52465;51.560;14.368;2022-10-16T02:34:06;100086.03;;;17.55;64.19
65553;BME280;52465;51.560;14.368;2022-10-16T02:36:33;100092.94;;;17.56;64.20
65553;BME280;52465;51.560;14.368;2022-10-16T02:39:01;100082.56;;;17.55;64.44
65553;BME280;52465;51.560;14.368;2022-10-16T02:41:29;100079.94;;;17.55;64.30
65553;BME280;52465;51.560;14.368;2022-10-16T02:43:54;100081.75;;;17.54;64.45
65553;BME280;52465;51.560;14.368;2022-10-16T02:46:20;100082.78;;;17.53;64.26
65553;BME280;52465;51.560;14.368;2022-10-16T02:48:46;100077.50;;;17.53;64.38
65553;BME280;52465;51.560;14.368;2022-10-16T02:51:11;100079.34;;;17.53;64.16
65553;BME280;52465;51.560;14.368;2022-10-16T02:53:36;100087.06;;;17.54;64.36
65553;BME280;52465;51.560;14.368;2022-10-16T02:56:01;100082.78;;;17.53;64.21
65553;BME280;52465;51.560;14.368;2022-10-16T02:58:27;100071.41;;;17.53;64.14
65553;BME280;52465;51.560;14.368;2022-10-16T03:00:52;100077.50;;;17.53;64.31
65553;BME280;52465;51.560;14.368;2022-10-16T03:03:17;100073.22;;;17.52;64.23
65553;BME280;52465;51.560;14.368;2022-10-16T03:05:43;100074.03;;;17.53;64.44
65553;BME280;52465;51.560;14.368;2022-10-16T03:08:10;100066.09;;;17.53;64.37
65553;BME280;52465;51.560;14.368;2022-10-16T03:10:36;100078.53;;;17.52;64.48
65553;BME280;52465;51.560;14.368;2022-10-16T03:13:01;100074.25;;;17.51;64.41
65553;BME280;52465;51.560;14.368;2022-10-16T03:15:26;100076.91;;;17.51;64.37
65553;BME280;52465;51.560;14.368;2022-10-16T03:17:53;100075.06;;;17.52;64.30
65553;BME280;52465;51.560;14.368;2022-10-16T03:20:18;100078.72;;;17.51;64.42
65553;BME280;52465;51.560;14.368;2022-10-16T03:22:43;100072.41;;;17.52;64.54
65553;BME280;52465;51.560;14.368;2022-10-16T03:25:09;100078.72;;;17.51;64.36
65553;BME280;52465;51.560;14.368;2022-10-16T03:27:34;100087.66;;;17.50;64.41
65553;BME280;52465;51.560;14.368;2022-10-16T03:29:59;100104.38;;;17.50;64.15
65553;BME280;52465;51.560;14.368;2022-10-16T03:32:24;100107.00;;;17.50;64.39
65553;BME280;52465;51.560;14.368;2022-10-16T03:34:50;100102.53;;;17.51;64.41
65553;BME280;52465;51.560;14.368;2022-10-16T03:37:15;100093.78;;;17.50;64.36
65553;BME280;52465;51.560;14.368;2022-10-16T03:39:40;100085.84;;;17.43;64.39
65553;BME280;52465;51.560;14.368;2022-10-16T03:42:06;100099.06;;;17.50;64.37
65553;BME280;52465;51.560;14.368;2022-10-16T03:44:31;100089.50;;;17.49;64.29
65553;BME280;52465;51.560;14.368;2022-10-16T03:46:56;100098.25;;;17.50;64.43
65553;BME280;52465;51.560;14.368;2022-10-16T03:49:22;100102.97;;;17.48;64.35
65553;BME280;52465;51.560;14.368;2022-10-16T03:51:47;100108.03;;;17.49;64.34
65553;BME280;52465;51.560;14.368;2022-10-16T03:54:12;100108.25;;;17.48;64.37
65553;BME280;52465;51.560;14.368;2022-10-16T03:56:38;100116.78;;;17.50;64.26
65553;BME280;52465;51.560;14.368;2022-10-16T03:59:03;100121.47;;;17.48;64.22
65553;BME280;52465;51.560;14.368;2022-10-16T04:01:28;100123.31;;;17.47;64.33
65553;BME280;52465;51.560;14.368;2022-10-16T04:03:53;100124.34;;;17.46;64.49
65553;BME280;52465;51.560;14.368;2022-10-16T04:06:19;100130.44;;;17.47;64.49
65553;BME280;52465;51.560;14.368;2022-10-16T04:08:44;100129.44;;;17.48;64.41
65553;BME280;52465;51.560;14.368;2022-10-16T04:11:10;100134.94;;;17.46;64.59
65553;BME280;52465;51.560;14.368;2022-10-16T04:13:35;100133.09;;;17.47;64.44
65553;BME280;52465;51.560;14.368;2022-10-16T04:16:00;100136.56;;;17.47;64.67
65553;BME280;52465;51.560;14.368;2022-10-16T04:18:25;100133.28;;;17.45;64.23
65553;BME280;52465;51.560;14.368;2022-10-16T04:20:52;100137.56;;;17.46;64.30
65553;BME280;52465;51.560;14.368;2022-10-16T04:23:18;100134.28;;;17.44;64.34
65553;BME280;52465;51.560;14.368;2022-10-16T04:25:43;100142.06;;;17.45;64.50
65553;BME280;52465;51.560;14.368;2022-10-16T04:28:08;100145.69;;;17.44;64.42
65553;BME280;52465;51.560;14.368;2022-10-16T04:30:33;100145.69;;;17.44;64.37
65553;BME280;52465;51.560;14.368;2022-10-16T04:32:59;100150.19;;;17.44;64.37
65553;BME280;52465;51.560;14.368;2022-10-16T04:35:24;100147.53;;;17.44;64.38
65553;BME280;52465;51.560;14.368;2022-10-16T04:37:49;100148.34;;;17.44;64.42
65553;BME280;52465;51.560;14.368;2022-10-16T04:40:15;100153.63;;;17.44;64.62
65553;BME280;52465;51.560;14.368;2022-10-16T04:42:41;100157.09;;;17.45;64.38
65553;BME280;52465;51.560;14.368;2022-10-16T04:45:06;100140.63;;;17.43;64.49
65553;BME280;52465;51.560;14.368;2022-10-16T04:47:33;100139.00;;;17.42;64.50
65553;BME280;52465;51.560;14.368;2022-10-16T04:49:58;100147.53;;;17.44;64.41
65553;BME280;52465;51.560;14.368;2022-10-16T04:52:26;100143.25;;;17.43;64.54
65553;BME280;52465;51.560;14.368;2022-10-16T04:54:51;100141.84;;;17.40;64.50
65553;BME280;52465;51.560;14.368;2022-10-16T04:57:17;100143.25;;;17.43;64.47
65553;BME280;52465;51.560;14.368;2022-10-16T04:59:42;100137.97;;;17.43;64.33
65553;BME280;52465;51.560;14.368;2022-10-16T05:02:07;100130.63;;;17.38;64.18
65553;BME280;52465;51.560;14.368;2022-10-16T05:04:33;100137.16;;;17.42;64.54
65553;BME280;52465;51.560;14.368;2022-10-16T05:06:58;100146.13;;;17.41;64.53
65553;BME280;52465;51.560;14.368;2022-10-16T05:09:23;100141.63;;;17.42;64.39
65553;BME280;52465;51.560;14.368;2022-10-16T05:11:48;100153.84;;;17.43;64.36
65553;BME280;52465;51.560;14.368;2022-10-16T05:14:14;100154.28;;;17.40;64.42
65553;BME280;52465;51.560;14.368;2022-10-16T05:16:39;100158.34;;;17.42;64.40
65553;BME280;52465;51.560;14.368;2022-10-16T05:19:04;100154.88;;;17.42;64.45
65553;BME280;52465;51.560;14.368;2022-10-16T05:21:29;100154.06;;;17.41;64.42
65553;BME280;52465;51.560;14.368;2022-10-16T05:23:55;100152.44;;;17.40;64.46
65553;BME280;52465;51.560;14.368;2022-10-16T05:26:20;100146.94;;;17.42;64.47
65553;BME280;52465;51.560;14.368;2022-10-16T05:28:46;100139.38;;;17.39;64.42
65553;BME280;52465;51.560;14.368;2022-10-16T05:31:11;100155.09;;;17.40;64.35
65553;BME280;52465;51.560;14.368;2022-10-16T05:33:36;100162.22;;;17.40;64.55
65553;BME280;52465;51.560;14.368;2022-10-16T05:36:07;100159.56;;;17.40;64.50
65553;BME280;52465;51.560;14.368;2022-10-16T05:38:33;100163.84;;;17.41;64.53
65553;BME280;52465;51.560;14.368;2022-10-16T05:40:59;100169.31;;;17.39;64.39
65553;BME280;52465;51.560;14.368;2022-10-16T05:43:24;100177.06;;;17.41;64.48
65553;BME280;52465;51.560;14.368;2022-10-16T05:46:01;100181.53;;;17.40;64.57
65553;BME280;52465;51.560;14.368;2022-10-16T05:48:26;100176.44;;;17.39;64.50
65553;BME280;52465;51.560;14.368;2022-10-16T05:51:00;100178.47;;;17.37;64.41
65553;BME280;52465;51.560;14.368;2022-10-16T05:53:30;100184.38;;;17.39;64.60
65553;BME280;52465;51.560;14.368;2022-10-16T05:55:56;100182.75;;;17.38;64.51
65553;BME280;52465;51.560;14.368;2022-10-16T05:58:22;100178.28;;;17.38;64.56
65553;BME280;52465;51.560;14.368;2022-10-16T06:01:00;100187.22;;;17.37;64.58
65553;BME280;52465;51.560;14.368;2022-10-16T06:03:26;100186.41;;;17.37;64.54
65553;BME280;52465;51.560;14.368;2022-10-16T06:05:52;100198.63;;;17.38;64.52
65553;BME280;52465;51.560;14.368;2022-10-16T06:08:18;100197.81;;;17.37;64.66
65553;BME280;52465;51.560;14.368;2022-10-16T06:10:45;100199.66;;;17.37;64.49
65553;BME280;52465;51.560;14.368;2022-10-16T06:13:14;100201.47;;;17.36;64.59
65553;BME280;52465;51.560;14.368;2022-10-16T06:15:40;100214.50;;;17.38;64.47
65553;BME280;52465;51.560;14.368;2022-10-16T06:18:07;100223.25;;;17.38;64.48
65553;BME280;52465;51.560;14.368;2022-10-16T06:20:32;100230.38;;;17.38;64.38
65553;BME280;52465;51.560;14.368;2022-10-16T06:22:58;100241.78;;;17.38;64.42
65553;BME280;52465;51.560;14.368;2022-10-16T06:25:23;100236.69;;;17.37;64.45
65553;BME280;52465;51.560;14.368;2022-10-16T06:27:48;100240.97;;;17.38;64.43
65553;BME280;52465;51.560;14.368;2022-10-16T06:30:13;100235.69;;;17.38;64.66
65553;BME280;52465;51.560;14.368;2022-10-16T06:32:39;100248.09;;;17.37;64.36
65553;BME280;52465;51.560;14.368;2022-10-16T06:35:04;100234.88;;;17.37;64.50
65553;BME280;52465;51.560;14.368;2022-10-16T06:37:29;100235.69;;;17.38;64.46
65553;BME280;52465;51.560;14.368;2022-10-16T06:39:55;100236.69;;;17.37;64.36
65553;BME280;52465;51.560;14.368;2022-10-16T06:42:20;100246.25;;;17.38;64.55
65553;BME280;52465;51.560;14.368;2022-10-16T06:44:45;100240.16;;;17.37;64.49
65553;BME280;52465;51.560;14.368;2022-10-16T06:47:11;100240.16;;;17.37;64.50
65553;BME280;52465;51.560;14.368;2022-10-16T06:49:36;100239.56;;;17.35;64.49
65553;BME280;52465;51.560;14.368;2022-10-16T06:52:02;100246.91;;;17.40;64.57
65553;BME280;52465;51.560;14.368;2022-10-16T06:54:28;100237.50;;;17.37;64.52
65553;BME280;52465;51.560;14.368;2022-10-16T06:56:53;100243.63;;;17.38;64.34
65553;BME280;52465;51.560;14.368;2022-10-16T06:59:20;100248.69;;;17.39;64.40
65553;BME280;52465;51.560;14.368;2022-10-16T07:01:45;100253.00;;;17.40;64.42
65553;BME280;52465;51.560;14.368;2022-10-16T07:04:11;100248.91;;;17.38;64.51
65553;BME280;52465;51.560;14.368;2022-10-16T07:06:36;100249.53;;;17.40;64.47
65553;BME280;52465;51.560;14.368;2022-10-16T07:09:08;100257.47;;;17.40;64.69
65553;BME280;52465;51.560;14.368;2022-10-16T07:11:34;100263.38;;;17.42;64.39
65553;BME280;52465;51.560;14.368;2022-10-16T07:13:59;100268.06;;;17.40;64.54
65553;BME280;52465;51.560;14.368;2022-10-16T07:16:26;100268.88;;;17.40;64.50
65553;BME280;52465;51.560;14.368;2022-10-16T07:18:54;100272.50;;;17.39;64.54
65553;BME280;52465;51.560;14.368;2022-10-16T07:21:23;100284.34;;;17.43;64.38
65553;BME280;52465;51.560;14.368;2022-10-16T07:23:51;100279.47;;;17.47;64.27
65553;BME280;52465;51.560;14.368;2022-10-16T07:26:17;100278.03;;;17.44;64.25
65553;BME280;52465;51.560;14.368;2022-10-16T07:28:43;100285.97;;;17.44;64.15
65553;BME280;52465;51.560;14.368;2022-10-16T07:31:12;100283.31;;;17.44;64.40
65553;BME280;52465;51.560;14.368;2022-10-16T07:33:39;100285.97;;;17.44;64.42
65553;BME280;52465;51.560;14.368;2022-10-16T07:36:05;100293.91;;;17.44;64.47
65553;BME280;52465;51.560;14.368;2022-10-16T07:38:31;100295.75;;;17.44;64.53
65553;BME280;52465;51.560;14.368;2022-10-16T07:41:01;100297.38;;;17.45;64.37
65553;BME280;52465;51.560;14.368;2022-10-16T07:43:27;100297.38;;;17.45;64.36
65553;BME280;52465;51.560;14.368;2022-10-16T07:45:53;100303.28;;;17.47;64.42
65553;BME280;52465;51.560;14.368;2022-10-16T07:48:20;100293.72;;;17.46;64.30
65553;BME280;52465;51.560;14.368;2022-10-16T07:50:46;100295.56;;;17.45;64.44
65553;BME280;52465;51.560;14.368;2022-10-16T07:53:11;100290.28;;;17.45;64.49
65553;BME280;52465;51.560;14.368;2022-10-16T07:55:37;100292.72;;;17.47;64.28
65553;BME280;52465;51.560;14.368;2022-10-16T07:58:02;100304.91;;;17.48;64.49
65553;BME280;52465;51.560;14.368;2022-10-16T08:00:28;100301.25;;;17.42;64.57
65553;BME280;52465;51.560;14.368;2022-10-16T08:02:53;100288.59;;;17.38;64.75
65553;BME280;52465;51.560;14.368;2022-10-16T08:05:18;100311.63;;;17.51;64.55
65553;BME280;52465;51.560;14.368;2022-10-16T08:07:48;100320.41;;;17.51;64.45
65553;BME280;52465;51.560;14.368;2022-10-16T08:10:19;100316.13;;;17.50;64.36
65553;BME280;52465;51.560;14.368;2022-10-16T08:12:45;100325.72;;;17.51;64.38
65553;BME280;52465;51.560;14.368;2022-10-16T08:15:10;100335.44;;;17.51;64.47
65553;BME280;52465;51.560;14.368;2022-10-16T08:17:35;100345.88;;;17.52;64.55
65553;BME280;52465;51.560;14.368;2022-10-16T08:20:01;100339.75;;;17.52;64.67
65553;BME280;52465;51.560;14.368;2022-10-16T08:22:26;100337.91;;;17.52;64.48
65553;BME280;52465;51.560;14.368;2022-10-16T08:24:52;100342.19;;;17.53;64.41
65553;BME280;52465;51.560;14.368;2022-10-16T08:27:17;100339.53;;;17.53;64.28
65553;BME280;52465;51.560;14.368;2022-10-16T08:29:42;100341.19;;;17.54;64.45
65553;BME280;52465;51.560;14.368;2022-10-16T08:32:07;100349.31;;;17.53;64.48
65553;BME280;52465;51.560;14.368;2022-10-16T08:34:33;100345.66;;;17.54;64.53
65553;BME280;52465;51.560;14.368;2022-10-16T08:36:58;100340.56;;;17.52;64.52
65553;BME280;52465;51.560;14.368;2022-10-16T08:39:23;100337.50;;;17.55;64.13
65553;BME280;52465;51.560;14.368;2022-10-16T08:42:10;100332.22;;;17.55;64.51
65553;BME280;52465;51.560;14.368;2022-10-16T08:45:13;100326.91;;;17.55;64.55
65553;BME280;52465;51.560;14.368;2022-10-16T08:50:32;100336.31;;;17.58;64.43
65553;BME280;52465;51.560;14.368;2022-10-16T08:53:01;100336.31;;;17.58;64.56
65553;BME280;52465;51.560;14.368;2022-10-16T08:55:38;100327.56;;;17.57;64.48
65553;BME280;52465;51.560;14.368;2022-10-16T08:58:12;100337.13;;;17.58;64.53
65553;BME280;52465;51.560;14.368;2022-10-16T09:00:39;100343.22;;;17.59;64.46
65553;BME280;52465;51.560;14.368;2022-10-16T09:08:24;100359.13;;;17.59;64.40
65553;BME280;52465;51.560;14.368;2022-10-16T09:11:17;100347.50;;;17.60;64.71
65553;BME280;52465;51.560;14.368;2022-10-16T09:14:05;100329.78;;;17.60;64.23
65553;BME280;52465;51.560;14.368;2022-10-16T09:16:52;100339.34;;;17.61;64.51
65553;BME280;52465;51.560;14.368;2022-10-16T09:19:24;100347.72;;;17.65;64.63
65553;BME280;52465;51.560;14.368;2022-10-16T09:21:54;100340.59;;;17.65;64.48
65553;BME280;52465;51.560;14.368;2022-10-16T09:24:24;100350.59;;;17.70;64.41
65553;BME280;52465;51.560;14.368;2022-10-16T09:26:50;100363.63;;;17.71;64.43
65553;BME280;52465;51.560;14.368;2022-10-16T09:29:17;100373.22;;;17.73;64.49
65553;BME280;52465;51.560;14.368;2022-10-16T09:31:45;100366.94;;;17.74;64.61
65553;BME280;52465;51.560;14.368;2022-10-16T09:34:33;100373.03;;;17.74;64.76
65553;BME280;52465;51.560;14.368;2022-10-16T09:37:01;100367.75;;;17.74;64.48
65553;BME280;52465;51.560;14.368;2022-10-16T09:39:28;100368.56;;;17.75;64.79
65553;BME280;52465;51.560;14.368;2022-10-16T09:41:57;100368.72;;;17.73;64.60
65553;BME280;52465;51.560;14.368;2022-10-16T09:44:26;100382.59;;;17.75;64.78
65553;BME280;52465;51.560;14.368;2022-10-16T09:47:03;100383.41;;;17.76;64.63
65553;BME280;52465;51.560;14.368;2022-10-16T09:49:29;100395.84;;;17.75;64.69
65553;BME280;52465;51.560;14.368;2022-10-16T09:52:09;100401.97;;;17.76;64.63
65553;BME280;52465;51.560;14.368;2022-10-16T09:54:36;100401.97;;;17.76;64.46
65553;BME280;52465;51.560;14.368;2022-10-16T09:57:06;100400.34;;;17.75;64.78
65553;BME280;52465;51.560;14.368;2022-10-16T09:59:31;100399.09;;;17.77;64.62
65553;BME280;52465;51.560;14.368;2022-10-16T10:02:01;100391.78;;;17.79;64.66
65553;BME280;52465;51.560;14.368;2022-10-16T10:04:38;100395.44;;;17.78;64.60
65553;BME280;52465;51.560;14.368;2022-10-16T10:07:05;100400.72;;;17.78;64.67
65553;BME280;52465;51.560;14.368;2022-10-16T10:09:38;100403.38;;;17.78;64.66
65553;BME280;52465;51.560;14.368;2022-10-16T10:12:05;100405.03;;;17.79;64.85
65553;BME280;52465;51.560;14.368;2022-10-16T10:14:45;100400.56;;;17.80;64.81
65553;BME280;52465;51.560;14.368;2022-10-16T10:17:12;100408.28;;;17.81;64.58
65553;BME280;52465;51.560;14.368;2022-10-16T10:19:53;100408.28;;;17.81;64.65
65553;BME280;52465;51.560;14.368;2022-10-16T10:27:32;100402.56;;;17.78;64.54
65553;BME280;52465;51.560;14.368;2022-10-16T10:32:51;100400.72;;;17.78;64.76
65553;BME280;52465;51.560;14.368;2022-10-16T10:35:34;100403.19;;;17.80;64.80
65553;BME280;52465;51.560;14.368;2022-10-16T10:44:03;100412.13;;;17.79;64.68
65553;BME280;52465;51.560;14.368;2022-10-16T10:49:23;100420.06;;;17.79;64.72
65553;BME280;52465;51.560;14.368;2022-10-16T10:51:53;100418.28;;;17.79;64.63
65553;BME280;52465;51.560;14.368;2022-10-16T10:54:31;100422.72;;;17.79;64.96
65553;BME280;52465;51.560;14.368;2022-10-16T11:07:23;100417.44;;;17.79;64.95
65553;BME280;52465;51.560;14.368;2022-10-16T11:09:56;100420.72;;;17.81;64.93
65553;BME280;52465;51.560;14.368;2022-10-16T11:12:35;100416.22;;;17.81;64.85
65553;BME280;52465;51.560;14.368;2022-10-16T11:15:33;100425.19;;;17.80;64.92
65553;BME280;52465;51.560;14.368;2022-10-16T11:18:06;100428.88;;;17.79;65.02
65553;BME280;52465;51.560;14.368;2022-10-16T11:20:52;100425.19;;;17.80;64.89
65553;BME280;52465;51.560;14.368;2022-10-16T11:23:31;100420.06;;;17.79;64.82
65553;BME280;52465;51.560;14.368;2022-10-16T11:26:02;100425.81;;;17.82;64.80
65553;BME280;52465;51.560;14.368;2022-10-16T11:28:39;100419.91;;;17.80;64.70
65553;BME280;52465;51.560;14.368;2022-10-16T11:31:24;100416.03;;;17.83;64.81
65553;BME280;52465;51.560;14.368;2022-10-16T11:34:10;100428.25;;;17.84;64.93
65553;BME280;52465;51.560;14.368;2022-10-16T11:36:55;100423.16;;;17.89;64.83
65553;BME280;52465;51.560;14.368;2022-10-16T11:39:28;100424.84;;;17.96;65.06
65553;BME280;52465;51.560;14.368;2022-10-16T11:41:59;100428.50;;;18.02;64.97
65553;BME280;52465;51.560;14.368;2022-10-16T11:44:38;100430.94;;;18.04;65.03
65553;BME280;52465;51.560;14.368;2022-10-16T11:47:11;100424.41;;;18.06;64.86
65553;BME280;52465;51.560;14.368;2022-10-16T11:49:39;100426.06;;;18.07;65.06
65553;BME280;52465;51.560;14.368;2022-10-16T11:52:25;100438.69;;;18.05;65.12
65553;BME280;52465;51.560;14.368;2022-10-16T11:55:15;100436.69;;;18.07;65.23
65553;BME280;52465;51.560;14.368;2022-10-16T11:57:51;100434.03;;;18.07;65.33
65553;BME280;52465;51.560;14.368;2022-10-16T12:00:26;100426.88;;;18.08;65.18
65553;BME280;52465;51.560;14.368;2022-10-16T12:03:15;100432.19;;;18.08;65.32
65553;BME280;52465;51.560;14.368;2022-10-16T12:05:55;100436.69;;;18.07;65.25
65553;BME280;52465;51.560;14.368;2022-10-16T12:08:24;100432.38;;;18.06;65.45
65553;BME280;52465;51.560;14.368;2022-10-16T12:10:49;100432.38;;;18.06;65.37
65553;BME280;52465;51.560;14.368;2022-10-16T12:13:36;100442.97;;;18.06;65.31
65553;BME280;52465;51.560;14.368;2022-10-16T12:18:36;100444.81;;;18.06;65.31
65553;BME280;52465;51.560;14.368;2022-10-16T12:21:02;100444.00;;;18.05;65.31
65553;BME280;52465;51.560;14.368;2022-10-16T12:23:32;100439.50;;;18.06;65.15
65553;BME280;52465;51.560;14.368;2022-10-16T12:25:59;100436.69;;;18.07;65.20
65553;BME280;52465;51.560;14.368;2022-10-16T12:28:28;100429.72;;;18.06;65.47
65553;BME280;52465;51.560;14.368;2022-10-16T12:31:02;100427.06;;;18.06;65.16
65553;BME280;52465;51.560;14.368;2022-10-16T12:33:32;100427.06;;;18.06;65.37
65553;BME280;52465;51.560;14.368;2022-10-16T12:36:07;100431.56;;;18.06;65.35
65553;BME280;52465;51.560;14.368;2022-10-16T12:38:45;100436.03;;;18.05;65.04
65553;BME280;52465;51.560;14.368;2022-10-16T12:41:11;100449.94;;;18.07;65.14
65553;BME280;52465;51.560;14.368;2022-10-16T12:43:45;100439.31;;;18.07;65.27
65553;BME280;52465;51.560;14.368;2022-10-16T12:48:39;100438.31;;;18.08;65.36
65553;BME280;52465;51.560;14.368;2022-10-16T12:54:13;100450.53;;;18.09;65.27
65553;BME280;52465;51.560;14.368;2022-10-16T12:57:29;100454.19;;;18.08;65.35
65553;BME280;52465;51.560;14.368;2022-10-16T13:00:12;100463.16;;;18.07;65.33
65553;BME280;52465;51.560;14.368;2022-10-16T13:05:30;100476.22;;;18.09;65.19
65553;BME280;52465;51.560;14.368;2022-10-16T13:08:16;100477.03;;;18.09;65.20
65553;BME280;52465;51.560;14.368;2022-10-16T13:19:15;100496.59;;;18.08;65.33
65553;BME280;52465;51.560;14.368;2022-10-16T13:22:06;100498.44;;;18.08;65.64
65553;BME280;52465;51.560;14.368;2022-10-16T13:25:02;100502.69;;;18.09;65.38
65553;BME280;52465;51.560;14.368;2022-10-16T13:30:12;100500.06;;;18.09;65.22
65553;BME280;52465;51.560;14.368;2022-10-16T13:32:39;100502.69;;;18.09;65.27
65553;BME280;52465;51.560;14.368;2022-10-16T13:35:19;100499.25;;;18.08;65.29
65553;BME280;52465;51.560;14.368;2022-10-16T13:37:44;100497.41;;;18.09;65.33
65553;BME280;52465;51.560;14.368;2022-10-16T13:40:19;100492.09;;;18.09;65.07
65553;BME280;52465;51.560;14.368;2022-10-16T13:42:45;100492.91;;;18.09;65.39
65553;BME280;52465;51.560;14.368;2022-10-16T13:45:19;100490.28;;;18.09;65.16
65553;BME280;52465;51.560;14.368;2022-10-16T13:47:44;100489.03;;;18.05;65.32
65553;BME280;52465;51.560;14.368;2022-10-16T13:50:14;100493.72;;;18.10;65.23
65553;BME280;52465;51.560;14.368;2022-10-16T13:52:40;100493.72;;;18.10;65.29
65553;BME280;52465;51.560;14.368;2022-10-16T13:55:15;100498.22;;;18.09;65.43
65553;BME280;52465;51.560;14.368;2022-10-16T13:57:41;100500.88;;;18.09;65.32